Time;durP1;ratioP1;P1;durP2;ratioP2;P2;SDS_P1;SDS_P2;PMS_P1;PMS_P2;Temp;Humidity;BMP_temperature;BMP_pressure;BME280_temperature;BME280_humidity;BME280_pressure;Samples;Min_cycle;Max_cycle;Signal;HPM_P1;HPM_P2
2022/04/13 00:00:05;;;;;;;;;;;15.30;99.90;;;;;;2063882;28;19937;-68
2022/04/13 00:01:05;;;;;;;;;;;15.30;99.90;;;;;;2063405;28;19916;-68
2022/04/13 00:02:06;;;;;;;;;;;15.30;99.90;;;;;;2062354;28;20001;-68
2022/04/13 00:03:06;;;;;;;;;;;15.30;99.90;;;;;;2063373;28;19921;-68
2022/04/13 00:04:07;;;;;;;;;;;15.30;99.90;;;;;;2067352;28;19910;-68
2022/04/13 00:05:08;;;;;;;;;;;15.30;99.90;;;;;;2066918;28;20398;-68
2022/04/13 00:06:09;;;;;;;;;;;15.30;99.90;;;;;;2062947;28;19918;-68
2022/04/13 00:07:09;;;;;;;;;;;15.30;99.90;;;;;;2061919;28;19910;-68
2022/04/13 00:08:10;;;;;;;;;;;15.30;99.90;;;;;;2061129;28;20013;-68
2022/04/13 00:09:10;;;;;;;;;;;15.30;99.90;;;;;;2063297;28;19913;-68
2022/04/13 00:10:11;;;;;;;;;;;15.30;99.90;;;;;;2061631;28;19915;-68
2022/04/13 00:11:13;;;;;;;;;;;15.20;99.90;;;;;;2064933;28;19914;-68
2022/04/13 00:12:14;;;;;;;;;;;15.20;99.90;;;;;;2066962;28;19922;-68
2022/04/13 00:13:14;;;;;;;;;;;15.20;99.90;;;;;;2066106;28;19913;-68
2022/04/13 00:14:15;;;;;;;;;;;15.20;99.90;;;;;;2065786;28;20028;-68
2022/04/13 00:15:15;;;;;;;;;;;15.20;99.90;;;;;;2063298;28;19910;-68
2022/04/13 00:16:15;;;;;;;;;;;15.20;99.90;;;;;;2064008;28;19920;-68
2022/04/13 00:17:17;;;;;;;;;;;15.20;99.90;;;;;;2063952;28;19914;-68
2022/04/13 00:18:17;;;;;;;;;;;15.20;99.90;;;;;;2063817;28;19909;-68
2022/04/13 00:19:20;;;;;;;;;;;15.20;99.90;;;;;;2061390;28;19910;-68
2022/04/13 00:20:22;;;;;;;;;;;15.20;99.90;;;;;;2063059;28;19911;-68
2022/04/13 00:21:22;;;;;;;;;;;15.20;99.90;;;;;;2059240;28;19918;-69
2022/04/13 00:22:23;;;;;;;;;;;15.10;99.90;;;;;;2063733;28;19928;-68
2022/04/13 00:23:23;;;;;;;;;;;15.10;99.90;;;;;;2058739;28;19914;-68
2022/04/13 00:24:24;;;;;;;;;;;15.10;99.90;;;;;;2064854;28;19914;-68
2022/04/13 00:25:24;;;;;;;;;;;15.10;99.90;;;;;;2061301;28;20049;-68
2022/04/13 00:26:25;;;;;;;;;;;15.10;99.90;;;;;;2064569;28;19917;-68
2022/04/13 00:27:25;;;;;;;;;;;15.10;99.90;;;;;;2067415;28;19917;-68
2022/04/13 00:28:25;;;;;;;;;;;15.10;99.90;;;;;;2065600;28;20262;-68
2022/04/13 00:29:29;;;;;;;;;;;15.10;99.90;;;;;;2065344;28;19923;-68
2022/04/13 00:30:30;;;;;;;;;;;15.00;99.90;;;;;;2066127;28;20316;-68
2022/04/13 00:31:30;;;;;;;;;;;15.00;99.90;;;;;;2061833;28;19914;-68
2022/04/13 00:32:33;;;;;;;;;;;15.00;99.90;;;;;;2064458;28;19914;-68
2022/04/13 00:33:33;;;;;;;;;;;15.00;99.90;;;;;;2063808;28;19917;-68
2022/04/13 00:34:34;;;;;;;;;;;15.00;99.90;;;;;;2060042;28;19914;-68
2022/04/13 00:35:35;;;;;;;;;;;15.00;99.90;;;;;;2063505;28;19949;-68
2022/04/13 00:36:35;;;;;;;;;;;15.00;99.90;;;;;;2067000;28;19913;-68
2022/04/13 00:37:37;;;;;;;;;;;15.00;99.90;;;;;;2064460;28;19910;-68
2022/04/13 00:38:37;;;;;;;;;;;15.00;99.90;;;;;;2064831;28;19917;-68
2022/04/13 00:39:38;;;;;;;;;;;14.90;99.90;;;;;;2062422;28;19909;-68
2022/04/13 00:40:41;;;;;;;;;;;14.90;99.90;;;;;;2064415;28;19953;-68
2022/04/13 00:41:42;;;;;;;;;;;14.90;99.90;;;;;;2060698;28;19918;-68
2022/04/13 00:42:42;;;;;;;;;;;14.90;99.90;;;;;;2063724;28;19989;-68
2022/04/13 00:43:43;;;;;;;;;;;14.90;99.90;;;;;;2066965;28;20290;-68
2022/04/13 00:44:43;;;;;;;;;;;14.90;99.90;;;;;;2065619;28;20636;-68
2022/04/13 00:45:45;;;;;;;;;;;14.90;99.90;;;;;;2063875;28;20313;-68
2022/04/13 00:46:45;;;;;;;;;;;14.90;99.90;;;;;;2062290;28;19917;-68
2022/04/13 00:47:46;;;;;;;;;;;14.90;99.90;;;;;;2060913;28;19913;-68
2022/04/13 00:48:46;;;;;;;;;;;14.90;99.90;;;;;;2063713;28;20332;-68
2022/04/13 00:49:47;;;;;;;;;;;14.90;99.90;;;;;;2063007;28;19910;-68
2022/04/13 00:50:47;;;;;;;;;;;14.90;99.90;;;;;;2060329;28;20013;-68
2022/04/13 00:51:48;;;;;;;;;;;14.90;99.90;;;;;;2063869;28;19914;-68
2022/04/13 00:52:49;;;;;;;;;;;14.90;99.90;;;;;;2061967;28;19993;-68
2022/04/13 00:53:50;;;;;;;;;;;14.90;99.90;;;;;;2065746;28;20013;-68
2022/04/13 00:54:51;;;;;;;;;;;14.90;99.90;;;;;;2062293;28;19914;-68
2022/04/13 00:55:55;;;;;;;;;;;14.90;99.90;;;;;;2064354;28;19913;-68
2022/04/13 00:56:56;;;;;;;;;;;14.80;99.90;;;;;;2063686;28;19920;-68
2022/04/13 00:57:59;;;;;;;;;;;14.80;99.90;;;;;;2060849;28;19917;-68
2022/04/13 00:59:06;;;;;;;;;;;14.80;99.90;;;;;;2067471;28;19917;-68
2022/04/13 01:00:09;;;;;;;;;;;14.80;99.90;;;;;;2067847;28;19910;-68
2022/04/13 01:01:10;;;;;;;;;;;14.80;99.90;;;;;;2067189;28;19965;-68
2022/04/13 01:02:12;;;;;;;;;;;14.80;99.90;;;;;;2065933;28;20701;-68
2022/04/13 01:03:13;;;;;;;;;;;14.80;99.90;;;;;;2063493;28;19957;-68
2022/04/13 01:04:14;;;;;;;;;;;14.70;99.90;;;;;;2063452;28;19910;-68
2022/04/13 01:05:15;;;;;;;;;;;14.70;99.90;;;;;;2061759;28;20259;-68
2022/04/13 01:06:16;;;;;;;;;;;14.70;99.90;;;;;;2064793;28;20009;-68
2022/04/13 01:07:16;;;;;;;;;;;14.70;99.90;;;;;;2068425;28;19917;-68
2022/04/13 01:08:17;;;;;;;;;;;14.70;99.90;;;;;;2064037;28;19910;-68
2022/04/13 01:09:18;;;;;;;;;;;14.70;99.90;;;;;;2062996;28;19909;-68
2022/04/13 01:10:19;;;;;;;;;;;14.70;99.90;;;;;;2065003;28;19945;-68
2022/04/13 01:11:20;;;;;;;;;;;14.70;99.90;;;;;;2067210;28;19910;-68
2022/04/13 01:12:20;;;;;;;;;;;14.60;99.90;;;;;;2065582;28;19945;-68
2022/04/13 01:13:21;;;;;;;;;;;14.60;99.90;;;;;;2065469;28;19921;-68
2022/04/13 01:14:21;;;;;;;;;;;14.60;99.90;;;;;;2065143;28;20421;-68
2022/04/13 01:15:22;;;;;;;;;;;14.60;99.90;;;;;;2064924;28;19921;-68
2022/04/13 01:16:23;;;;;;;;;;;14.60;99.90;;;;;;2063063;28;19921;-68
2022/04/13 01:17:24;;;;;;;;;;;14.60;99.90;;;;;;2065320;28;19918;-68
2022/04/13 01:18:24;;;;;;;;;;;14.60;99.90;;;;;;2065187;28;19914;-68
2022/04/13 01:19:25;;;;;;;;;;;14.60;99.90;;;;;;2065868;28;19917;-68
2022/04/13 01:20:25;;;;;;;;;;;14.60;99.90;;;;;;2061682;28;19973;-68
2022/04/13 01:21:42;;;;;;;;;;;14.60;99.90;;;;;;2058794;28;19910;-68
2022/04/13 01:22:44;;;;;;;;;;;14.60;99.90;;;;;;2064146;28;20542;-68
2022/04/13 01:23:45;;;;;;;;;;;14.50;99.90;;;;;;2057486;28;20525;-68
2022/04/13 01:24:46;;;;;;;;;;;14.50;99.90;;;;;;2064368;28;20444;-68
2022/04/13 01:25:51;;;;;;;;;;;14.50;99.90;;;;;;2064315;28;20017;-68
2022/04/13 01:26:51;;;;;;;;;;;14.50;99.90;;;;;;2065520;28;20123;-68
2022/04/13 01:27:52;;;;;;;;;;;14.50;99.90;;;;;;2065873;28;19972;-68
2022/04/13 01:28:52;;;;;;;;;;;14.40;99.90;;;;;;2065767;28;20004;-68
2022/04/13 01:29:54;;;;;;;;;;;14.40;99.90;;;;;;2068780;28;19917;-68
2022/04/13 01:30:55;;;;;;;;;;;14.40;99.90;;;;;;2064143;28;19964;-68
2022/04/13 01:31:56;;;;;;;;;;;14.40;99.90;;;;;;2064039;28;19921;-68
2022/04/13 01:32:57;;;;;;;;;;;14.40;99.90;;;;;;2065456;28;20282;-68
2022/04/13 01:33:59;;;;;;;;;;;14.40;99.90;;;;;;2065168;28;19933;-68
2022/04/13 01:34:59;;;;;;;;;;;14.40;99.90;;;;;;2066586;28;19914;-68
2022/04/13 01:36:02;;;;;;;;;;;14.30;99.90;;;;;;2065510;28;20369;-68
2022/04/13 01:37:03;;;;;;;;;;;14.40;99.90;;;;;;2065689;28;19921;-68
2022/04/13 01:38:04;;;;;;;;;;;14.30;99.90;;;;;;2069127;28;20376;-68
2022/04/13 01:39:06;;;;;;;;;;;14.30;99.90;;;;;;2068224;28;19910;-68
2022/04/13 01:40:06;;;;;;;;;;;14.30;99.90;;;;;;2067025;28;19917;-68
2022/04/13 01:41:07;;;;;;;;;;;14.30;99.90;;;;;;2066969;28;19924;-68
2022/04/13 01:42:07;;;;;;;;;;;14.30;99.90;;;;;;2067914;28;19917;-68
2022/04/13 01:43:08;;;;;;;;;;;14.20;99.90;;;;;;2059487;28;19975;-68
2022/04/13 01:44:08;;;;;;;;;;;14.20;99.90;;;;;;2062988;28;19926;-68
2022/04/13 01:45:09;;;;;;;;;;;14.20;99.90;;;;;;2063345;28;20366;-68
2022/04/13 01:46:10;;;;;;;;;;;14.20;99.90;;;;;;2061123;28;19918;-68
2022/04/13 01:47:10;;;;;;;;;;;14.20;99.90;;;;;;2063898;28;20389;-68
2022/04/13 01:48:10;;;;;;;;;;;14.20;99.90;;;;;;2064341;28;19972;-68
2022/04/13 01:49:11;;;;;;;;;;;14.20;99.90;;;;;;2064928;28;19914;-68
2022/04/13 01:50:11;;;;;;;;;;;14.20;99.90;;;;;;2067018;28;19940;-68
2022/04/13 01:51:12;;;;;;;;;;;14.10;99.90;;;;;;2062577;28;19925;-68
2022/04/13 01:52:12;;;;;;;;;;;14.10;99.90;;;;;;2062533;28;20382;-68
2022/04/13 01:53:13;;;;;;;;;;;14.10;99.90;;;;;;2060832;28;19914;-68
2022/04/13 01:54:13;;;;;;;;;;;14.10;99.90;;;;;;2064753;28;20271;-68
2022/04/13 01:55:14;;;;;;;;;;;14.10;99.90;;;;;;2063784;28;19957;-68
2022/04/13 01:56:15;;;;;;;;;;;14.10;99.90;;;;;;2064948;28;19914;-68
2022/04/13 01:57:15;;;;;;;;;;;14.10;99.90;;;;;;2065515;28;19937;-68
2022/04/13 01:58:16;;;;;;;;;;;14.10;99.90;;;;;;2066304;28;19972;-68
2022/04/13 01:59:16;;;;;;;;;;;14.10;99.90;;;;;;2061804;28;19918;-68
2022/04/13 02:00:17;;;;;;;;;;;14.10;99.90;;;;;;2061845;28;20002;-68
2022/04/13 02:01:17;;;;;;;;;;;14.10;99.90;;;;;;2064262;28;19910;-68
2022/04/13 02:02:18;;;;;;;;;;;14.10;99.90;;;;;;2068836;28;19968;-68
2022/04/13 02:03:19;;;;;;;;;;;14.10;99.90;;;;;;2065707;28;20017;-68
2022/04/13 02:04:20;;;;;;;;;;;14.10;99.90;;;;;;2065019;28;19917;-68
2022/04/13 02:05:21;;;;;;;;;;;14.10;99.90;;;;;;2062410;28;19949;-68
2022/04/13 02:06:21;;;;;;;;;;;14.10;99.90;;;;;;2065575;28;19910;-68
2022/04/13 02:07:21;;;;;;;;;;;14.00;99.90;;;;;;2063777;28;19972;-68
2022/04/13 02:08:22;;;;;;;;;;;14.00;99.90;;;;;;2063300;28;19953;-68
2022/04/13 02:09:23;;;;;;;;;;;14.00;99.90;;;;;;2063592;28;19916;-68
2022/04/13 02:10:23;;;;;;;;;;;14.00;99.90;;;;;;2063799;28;20044;-68
2022/04/13 02:11:23;;;;;;;;;;;14.00;99.90;;;;;;2062648;28;19913;-68
2022/04/13 02:12:24;;;;;;;;;;;14.00;99.90;;;;;;2064687;28;20044;-68
2022/04/13 02:13:24;;;;;;;;;;;14.00;99.90;;;;;;2059323;28;19917;-68
2022/04/13 02:14:25;;;;;;;;;;;14.00;99.90;;;;;;2064719;28;19910;-68
2022/04/13 02:15:26;;;;;;;;;;;14.00;99.90;;;;;;2061502;28;19910;-68
2022/04/13 02:16:26;;;;;;;;;;;14.00;99.90;;;;;;2065109;28;19913;-68
2022/04/13 02:17:26;;;;;;;;;;;14.00;99.90;;;;;;2066251;28;20008;-70
2022/04/13 02:18:27;;;;;;;;;;;13.90;99.90;;;;;;2068287;28;20391;-67
2022/04/13 02:19:27;;;;;;;;;;;13.90;99.90;;;;;;2068093;28;19923;-67
2022/04/13 02:20:28;;;;;;;;;;;13.90;99.90;;;;;;2064414;28;20254;-67
2022/04/13 02:21:28;;;;;;;;;;;13.90;99.90;;;;;;2063357;28;19914;-67
2022/04/13 02:22:29;;;;;;;;;;;13.90;99.90;;;;;;2064848;28;19980;-67
2022/04/13 02:23:29;;;;;;;;;;;13.90;99.90;;;;;;2059497;28;19910;-67
2022/04/13 02:24:30;;;;;;;;;;;13.90;99.90;;;;;;2064828;28;19914;-67
2022/04/13 02:25:30;;;;;;;;;;;13.90;99.90;;;;;;2063307;28;19914;-67
2022/04/13 02:26:30;;;;;;;;;;;13.90;99.90;;;;;;2070026;28;19921;-67
2022/04/13 02:27:31;;;;;;;;;;;13.90;99.90;;;;;;2063948;28;19909;-67
2022/04/13 02:28:32;;;;;;;;;;;13.80;99.90;;;;;;2062899;28;19922;-67
2022/04/13 02:29:34;;;;;;;;;;;13.90;99.90;;;;;;2061011;28;19918;-67
2022/04/13 02:30:34;;;;;;;;;;;13.80;99.90;;;;;;2065097;28;20617;-67
2022/04/13 02:31:35;;;;;;;;;;;13.80;99.90;;;;;;2062381;28;20420;-67
2022/04/13 02:32:39;;;;;;;;;;;13.80;99.90;;;;;;2064773;28;19914;-67
2022/04/13 02:33:39;;;;;;;;;;;13.80;99.90;;;;;;2063210;28;19914;-67
2022/04/13 02:34:40;;;;;;;;;;;13.80;99.90;;;;;;2067242;28;20412;-68
2022/04/13 02:35:40;;;;;;;;;;;13.80;99.90;;;;;;2064155;28;20016;-67
2022/04/13 02:36:41;;;;;;;;;;;13.70;99.90;;;;;;2068747;28;19916;-67
2022/04/13 02:37:43;;;;;;;;;;;13.70;99.90;;;;;;2065628;28;19984;-67
2022/04/13 02:38:43;;;;;;;;;;;13.70;99.90;;;;;;2065944;28;19961;-67
2022/04/13 02:39:47;;;;;;;;;;;13.70;99.90;;;;;;2062268;28;20419;-67
2022/04/13 02:40:47;;;;;;;;;;;13.70;99.90;;;;;;2060569;28;19914;-67
2022/04/13 02:41:48;;;;;;;;;;;13.70;99.90;;;;;;2063629;28;19918;-67
2022/04/13 02:42:48;;;;;;;;;;;13.60;99.90;;;;;;2063742;28;19984;-67
2022/04/13 02:43:49;;;;;;;;;;;13.60;99.90;;;;;;2064955;28;20321;-67
2022/04/13 02:44:49;;;;;;;;;;;13.60;99.90;;;;;;2062798;28;20036;-67
2022/04/13 02:45:50;;;;;;;;;;;13.60;99.90;;;;;;2064119;28;19921;-67
2022/04/13 02:46:50;;;;;;;;;;;13.60;99.90;;;;;;2062268;28;20337;-67
2022/04/13 02:47:51;;;;;;;;;;;13.60;99.90;;;;;;2061151;28;19914;-67
2022/04/13 02:48:51;;;;;;;;;;;13.60;99.90;;;;;;2064690;28;20088;-67
2022/04/13 02:49:52;;;;;;;;;;;13.50;99.90;;;;;;2065107;28;19976;-67
2022/04/13 02:50:52;;;;;;;;;;;13.50;99.90;;;;;;2067673;28;19917;-67
2022/04/13 02:51:53;;;;;;;;;;;13.50;99.90;;;;;;2065185;28;20723;-67
2022/04/13 02:52:56;;;;;;;;;;;13.50;99.90;;;;;;2063247;28;19953;-67
2022/04/13 02:53:56;;;;;;;;;;;13.50;99.90;;;;;;2065877;28;19914;-67
2022/04/13 02:54:57;;;;;;;;;;;13.40;99.90;;;;;;2062251;28;19929;-67
2022/04/13 02:55:58;;;;;;;;;;;13.50;99.90;;;;;;2060800;28;19917;-67
2022/04/13 02:56:59;;;;;;;;;;;13.40;99.90;;;;;;2068206;28;19960;-67
2022/04/13 02:57:59;;;;;;;;;;;13.40;99.90;;;;;;2066887;28;19944;-67
2022/04/13 02:59:00;;;;;;;;;;;13.40;99.90;;;;;;2066763;28;20285;-67
2022/04/13 03:00:00;;;;;;;;;;;13.40;99.90;;;;;;2065063;28;20021;-68
2022/04/13 03:01:03;;;;;;;;;;;13.30;99.90;;;;;;2064903;28;19914;-68
2022/04/13 03:02:04;;;;;;;;;;;13.40;99.90;;;;;;2064841;28;20401;-68
2022/04/13 03:03:04;;;;;;;;;;;13.30;99.90;;;;;;2063969;28;20276;-68
2022/04/13 03:04:05;;;;;;;;;;;13.30;99.90;;;;;;2064686;28;20415;-68
2022/04/13 03:05:06;;;;;;;;;;;13.30;99.90;;;;;;2064572;28;19916;-68
2022/04/13 03:06:06;;;;;;;;;;;13.20;99.90;;;;;;2063324;28;19957;-68
2022/04/13 03:07:07;;;;;;;;;;;13.20;99.90;;;;;;2060688;28;19918;-68
2022/04/13 03:08:07;;;;;;;;;;;13.20;99.90;;;;;;2062955;28;19914;-68
2022/04/13 03:09:08;;;;;;;;;;;13.20;99.90;;;;;;2063090;28;19956;-68
2022/04/13 03:10:08;;;;;;;;;;;13.20;99.90;;;;;;2062589;28;19984;-68
2022/04/13 03:11:09;;;;;;;;;;;13.20;99.90;;;;;;2071935;28;19992;-67
2022/04/13 03:12:10;;;;;;;;;;;13.20;99.90;;;;;;2069432;28;19969;-67
2022/04/13 03:13:11;;;;;;;;;;;13.20;99.90;;;;;;2067877;28;19910;-67
2022/04/13 03:14:11;;;;;;;;;;;13.10;99.90;;;;;;2067026;28;19914;-67
2022/04/13 03:15:12;;;;;;;;;;;13.10;99.90;;;;;;2065892;28;19917;-67
2022/04/13 03:16:12;;;;;;;;;;;13.10;99.90;;;;;;2064992;28;19924;-67
2022/04/13 03:17:13;;;;;;;;;;;13.00;99.90;;;;;;2065329;28;19910;-67
2022/04/13 03:18:13;;;;;;;;;;;13.00;99.90;;;;;;2065442;28;19960;-67
2022/04/13 03:19:14;;;;;;;;;;;13.00;99.90;;;;;;2065527;28;19914;-67
2022/04/13 03:20:14;;;;;;;;;;;13.00;99.90;;;;;;2064337;28;20516;-67
2022/04/13 03:21:15;;;;;;;;;;;13.00;99.90;;;;;;2060240;28;20012;-67
2022/04/13 03:22:15;;;;;;;;;;;13.00;99.90;;;;;;2067143;28;19918;-68
2022/04/13 03:23:15;;;;;;;;;;;13.00;99.90;;;;;;2059632;28;19929;-68
2022/04/13 03:24:16;;;;;;;;;;;12.90;99.90;;;;;;2064172;28;19913;-68
2022/04/13 03:25:17;;;;;;;;;;;12.90;99.90;;;;;;2062009;28;20447;-68
2022/04/13 03:26:17;;;;;;;;;;;12.90;99.90;;;;;;2064221;28;19921;-68
2022/04/13 03:27:18;;;;;;;;;;;12.90;99.90;;;;;;2064496;28;19914;-68
2022/04/13 03:28:22;;;;;;;;;;;12.90;99.90;;;;;;2060940;28;20038;-67
2022/04/13 03:29:22;;;;;;;;;;;12.80;99.90;;;;;;2065072;28;20005;-67
2022/04/13 03:30:23;;;;;;;;;;;12.80;99.90;;;;;;2067396;28;19910;-67
2022/04/13 03:31:23;;;;;;;;;;;12.80;99.90;;;;;;2065163;28;19918;-67
2022/04/13 03:32:24;;;;;;;;;;;12.80;99.90;;;;;;2066397;28;20001;-67
2022/04/13 03:33:24;;;;;;;;;;;12.80;99.90;;;;;;2064596;28;19914;-67
2022/04/13 03:34:25;;;;;;;;;;;12.80;99.90;;;;;;2063239;28;19913;-67
2022/04/13 03:35:25;;;;;;;;;;;12.70;99.90;;;;;;2070066;28;19921;-67
2022/04/13 03:36:26;;;;;;;;;;;12.70;99.90;;;;;;2071939;28;19923;-67
2022/04/13 03:37:26;;;;;;;;;;;12.70;99.90;;;;;;2063524;28;19914;-67
2022/04/13 03:38:27;;;;;;;;;;;12.70;99.90;;;;;;2063846;28;19918;-67
2022/04/13 03:39:28;;;;;;;;;;;12.70;99.90;;;;;;2063628;28;19914;-67
2022/04/13 03:40:28;;;;;;;;;;;12.70;99.90;;;;;;2064163;28;19921;-67
2022/04/13 03:41:28;;;;;;;;;;;12.60;99.90;;;;;;2060065;28;20392;-67
2022/04/13 03:42:32;;;;;;;;;;;12.60;99.90;;;;;;2062415;28;19997;-67
2022/04/13 03:43:33;;;;;;;;;;;12.60;99.90;;;;;;2062816;28;20012;-67
2022/04/13 03:44:33;;;;;;;;;;;12.60;99.90;;;;;;2063018;28;19910;-67
2022/04/13 03:45:34;;;;;;;;;;;12.60;99.90;;;;;;2065072;28;19922;-67
2022/04/13 03:46:34;;;;;;;;;;;12.60;99.90;;;;;;2066744;28;20712;-67
2022/04/13 03:47:35;;;;;;;;;;;12.60;99.90;;;;;;2066062;28;19933;-67
2022/04/13 03:48:35;;;;;;;;;;;12.60;99.90;;;;;;2066093;28;19945;-67
2022/04/13 03:49:36;;;;;;;;;;;12.50;99.90;;;;;;2062402;28;19920;-67
2022/04/13 03:50:36;;;;;;;;;;;12.50;99.90;;;;;;2065066;28;19913;-68
2022/04/13 03:51:37;;;;;;;;;;;12.50;99.90;;;;;;2062172;28;19995;-68
2022/04/13 03:52:38;;;;;;;;;;;12.50;99.90;;;;;;2060880;28;20554;-68
2022/04/13 03:53:38;;;;;;;;;;;12.50;99.90;;;;;;2066180;28;19913;-68
2022/04/13 03:54:40;;;;;;;;;;;12.50;99.90;;;;;;2063650;28;19914;-68
2022/04/13 03:55:40;;;;;;;;;;;12.40;99.90;;;;;;2064854;28;19937;-67
2022/04/13 03:56:41;;;;;;;;;;;12.40;99.90;;;;;;2063932;28;19941;-67
2022/04/13 03:57:42;;;;;;;;;;;12.40;99.90;;;;;;2062532;28;19963;-67
2022/04/13 03:58:42;;;;;;;;;;;12.40;99.90;;;;;;2064757;28;19913;-67
2022/04/13 03:59:43;;;;;;;;;;;12.40;99.90;;;;;;2063977;28;19917;-67
2022/04/13 04:00:43;;;;;;;;;;;12.40;99.90;;;;;;2065724;28;19913;-67
2022/04/13 04:01:44;;;;;;;;;;;12.40;99.90;;;;;;2066950;28;19948;-67
2022/04/13 04:02:45;;;;;;;;;;;12.30;99.90;;;;;;2063428;28;19909;-67
2022/04/13 04:03:45;;;;;;;;;;;12.30;99.90;;;;;;2060771;28;19914;-67
2022/04/13 04:04:46;;;;;;;;;;;12.30;99.90;;;;;;2059963;28;19965;-67
2022/04/13 04:05:46;;;;;;;;;;;12.30;99.90;;;;;;2059216;28;19913;-67
2022/04/13 04:06:47;;;;;;;;;;;12.30;99.90;;;;;;2061095;28;19917;-67
2022/04/13 04:07:48;;;;;;;;;;;12.30;99.90;;;;;;2060392;28;20405;-67
2022/04/13 04:08:49;;;;;;;;;;;12.30;99.90;;;;;;2058301;28;19914;-67
2022/04/13 04:09:50;;;;;;;;;;;12.30;99.90;;;;;;2058953;28;19910;-67
2022/04/13 04:10:51;;;;;;;;;;;12.20;99.90;;;;;;2058124;28;19914;-67
2022/04/13 04:11:51;;;;;;;;;;;12.20;99.90;;;;;;2058683;28;19914;-67
2022/04/13 04:12:52;;;;;;;;;;;12.20;99.90;;;;;;2059367;28;19921;-67
2022/04/13 04:13:52;;;;;;;;;;;12.20;99.90;;;;;;2060626;28;19913;-67
2022/04/13 04:14:57;;;;;;;;;;;12.20;99.90;;;;;;2063278;28;19910;-68
2022/04/13 04:15:59;;;;;;;;;;;12.10;99.90;;;;;;2061063;28;19917;-68
2022/04/13 04:16:59;;;;;;;;;;;12.10;99.90;;;;;;2066654;28;19913;-68
2022/04/13 04:18:00;;;;;;;;;;;12.10;99.90;;;;;;2067003;28;20419;-68
2022/04/13 04:19:00;;;;;;;;;;;12.10;99.90;;;;;;2063141;28;19917;-67
2022/04/13 04:20:01;;;;;;;;;;;12.10;99.90;;;;;;2063442;28;19956;-67
2022/04/13 04:21:01;;;;;;;;;;;12.10;99.90;;;;;;2063006;28;20606;-67
2022/04/13 04:22:02;;;;;;;;;;;12.10;99.90;;;;;;2063013;28;20012;-67
2022/04/13 04:23:02;;;;;;;;;;;12.10;99.90;;;;;;2058757;28;20020;-67
2022/04/13 04:24:03;;;;;;;;;;;12.10;99.90;;;;;;2062135;28;19910;-67
2022/04/13 04:25:04;;;;;;;;;;;12.10;99.90;;;;;;2061897;28;19918;-67
2022/04/13 04:26:05;;;;;;;;;;;12.10;99.90;;;;;;2057805;28;19910;-67
2022/04/13 04:27:05;;;;;;;;;;;12.00;99.90;;;;;;2059055;28;19960;-67
2022/04/13 04:28:10;;;;;;;;;;;12.00;99.90;;;;;;2061698;28;19969;-67
2022/04/13 04:29:10;;;;;;;;;;;12.00;99.90;;;;;;2062554;28;19916;-67
2022/04/13 04:30:10;;;;;;;;;;;12.00;99.90;;;;;;2063764;28;19921;-67
2022/04/13 04:31:11;;;;;;;;;;;12.00;99.90;;;;;;2064490;28;20293;-67
2022/04/13 04:32:11;;;;;;;;;;;12.00;99.90;;;;;;2063654;28;19964;-67
2022/04/13 04:33:16;;;;;;;;;;;12.00;99.90;;;;;;2063066;28;19993;-67
2022/04/13 04:34:17;;;;;;;;;;;12.00;99.90;;;;;;2062071;28;19910;-67
2022/04/13 04:35:17;;;;;;;;;;;12.00;99.90;;;;;;2060207;28;19913;-67
2022/04/13 04:36:18;;;;;;;;;;;12.00;99.90;;;;;;2065491;28;19914;-67
2022/04/13 04:37:18;;;;;;;;;;;11.90;99.90;;;;;;2071555;28;19910;-67
2022/04/13 04:38:19;;;;;;;;;;;11.90;99.90;;;;;;2069851;28;19917;-67
2022/04/13 04:39:19;;;;;;;;;;;11.90;99.90;;;;;;2058674;28;20409;-67
2022/04/13 04:40:20;;;;;;;;;;;11.90;99.90;;;;;;2059453;28;19914;-67
2022/04/13 04:41:20;;;;;;;;;;;11.90;99.90;;;;;;2058822;28;19950;-67
2022/04/13 04:42:21;;;;;;;;;;;11.90;99.90;;;;;;2058879;28;19921;-68
2022/04/13 04:43:21;;;;;;;;;;;11.90;99.90;;;;;;2061264;28;19913;-67
2022/04/13 04:44:22;;;;;;;;;;;11.90;99.90;;;;;;2061118;28;19921;-67
2022/04/13 04:45:23;;;;;;;;;;;11.90;99.90;;;;;;2059159;28;19980;-67
2022/04/13 04:46:23;;;;;;;;;;;11.90;99.90;;;;;;2061149;28;19920;-67
2022/04/13 04:47:24;;;;;;;;;;;11.90;99.90;;;;;;2059553;28;20285;-67
2022/04/13 04:48:25;;;;;;;;;;;11.80;99.90;;;;;;2059269;28;20331;-67
2022/04/13 04:49:25;;;;;;;;;;;11.80;99.90;;;;;;2061292;28;20626;-67
2022/04/13 04:50:26;;;;;;;;;;;11.80;99.90;;;;;;2059424;28;19922;-67
2022/04/13 04:51:26;;;;;;;;;;;11.80;99.90;;;;;;2061559;28;19918;-67
2022/04/13 04:52:26;;;;;;;;;;;11.80;99.90;;;;;;2061031;28;19913;-67
2022/04/13 04:53:27;;;;;;;;;;;11.80;99.90;;;;;;2058388;28;19917;-67
2022/04/13 04:54:27;;;;;;;;;;;11.80;99.90;;;;;;2058537;28;19920;-67
2022/04/13 04:55:28;;;;;;;;;;;11.80;99.90;;;;;;2059907;28;19914;-67
2022/04/13 04:56:29;;;;;;;;;;;11.80;99.90;;;;;;2058695;28;19910;-67
2022/04/13 04:57:30;;;;;;;;;;;11.80;99.90;;;;;;2060344;28;19910;-67
2022/04/13 04:58:30;;;;;;;;;;;11.80;99.90;;;;;;2058054;28;19914;-67
2022/04/13 04:59:31;;;;;;;;;;;11.70;99.90;;;;;;2058179;28;19932;-67
2022/04/13 05:00:36;;;;;;;;;;;11.80;99.90;;;;;;2058534;28;19921;-67
2022/04/13 05:01:37;;;;;;;;;;;11.70;99.90;;;;;;2059369;28;19914;-67
2022/04/13 05:02:38;;;;;;;;;;;11.80;99.90;;;;;;2061192;28;19918;-67
2022/04/13 05:03:38;;;;;;;;;;;11.70;99.90;;;;;;2060238;28;19945;-67
2022/04/13 05:04:39;;;;;;;;;;;11.70;99.90;;;;;;2061294;28;19998;-67
2022/04/13 05:05:41;;;;;;;;;;;11.70;99.90;;;;;;2056216;28;19917;-67
2022/04/13 05:06:41;;;;;;;;;;;11.70;99.90;;;;;;2061188;28;19949;-67
2022/04/13 05:07:42;;;;;;;;;;;11.70;99.90;;;;;;2058259;28;19918;-68
2022/04/13 05:08:43;;;;;;;;;;;11.70;99.90;;;;;;2056645;28;19918;-68
2022/04/13 05:09:43;;;;;;;;;;;11.70;99.90;;;;;;2061308;28;19913;-68
2022/04/13 05:10:50;;;;;;;;;;;11.70;99.90;;;;;;2059012;28;19917;-68
2022/04/13 05:11:51;;;;;;;;;;;11.70;99.90;;;;;;2059494;28;19911;-68
2022/04/13 05:12:57;;;;;;;;;;;11.70;99.90;;;;;;2057808;28;19957;-68
2022/04/13 05:13:58;;;;;;;;;;;11.70;99.90;;;;;;2060894;28;19921;-68
2022/04/13 05:15:02;;;;;;;;;;;11.70;99.90;;;;;;2060281;28;20362;-68
2022/04/13 05:16:02;;;;;;;;;;;11.70;99.90;;;;;;2058897;28;20358;-68
2022/04/13 05:17:03;;;;;;;;;;;11.70;99.90;;;;;;2056622;28;20007;-68
2022/04/13 05:18:03;;;;;;;;;;;11.70;99.90;;;;;;2057211;28;19910;-68
2022/04/13 05:19:04;;;;;;;;;;;11.70;99.90;;;;;;2059205;28;20289;-68
2022/04/13 05:20:05;;;;;;;;;;;11.70;99.90;;;;;;2063037;28;19910;-68
2022/04/13 05:21:05;;;;;;;;;;;11.70;99.90;;;;;;2057663;28;19910;-68
2022/04/13 05:22:06;;;;;;;;;;;11.70;99.90;;;;;;2058129;28;20646;-68
2022/04/13 05:23:06;;;;;;;;;;;11.70;99.90;;;;;;2058732;28;19968;-68
2022/04/13 05:24:07;;;;;;;;;;;11.70;99.90;;;;;;2056811;28;19918;-68
2022/04/13 05:25:11;;;;;;;;;;;11.70;99.90;;;;;;2059456;28;19965;-68
2022/04/13 05:26:11;;;;;;;;;;;11.70;99.90;;;;;;2059196;28;20005;-68
2022/04/13 05:27:12;;;;;;;;;;;11.80;99.90;;;;;;2060479;28;20357;-68
2022/04/13 05:28:12;;;;;;;;;;;11.80;99.90;;;;;;2058810;28;19922;-68
2022/04/13 05:29:13;;;;;;;;;;;11.80;99.90;;;;;;2058746;28;19910;-68
2022/04/13 05:30:16;;;;;;;;;;;11.80;99.90;;;;;;2058461;28;20524;-68
2022/04/13 05:31:16;;;;;;;;;;;11.80;99.90;;;;;;2061751;28;20024;-68
2022/04/13 05:32:17;;;;;;;;;;;11.80;99.90;;;;;;2061314;28;19917;-68
2022/04/13 05:33:17;;;;;;;;;;;11.80;99.90;;;;;;2059981;28;19925;-68
2022/04/13 05:34:17;;;;;;;;;;;11.80;99.90;;;;;;2059625;28;19914;-68
2022/04/13 05:35:19;;;;;;;;;;;11.90;99.90;;;;;;2061532;28;19916;-68
2022/04/13 05:36:19;;;;;;;;;;;11.90;99.90;;;;;;2061518;28;19913;-68
2022/04/13 05:37:20;;;;;;;;;;;11.90;99.90;;;;;;2061627;28;19920;-68
2022/04/13 05:38:20;;;;;;;;;;;11.90;99.90;;;;;;2058917;28;19914;-68
2022/04/13 05:39:21;;;;;;;;;;;11.90;99.90;;;;;;2058552;28;19914;-68
2022/04/13 05:40:23;;;;;;;;;;;12.00;99.90;;;;;;2058506;28;20181;-68
2022/04/13 05:41:24;;;;;;;;;;;12.00;99.90;;;;;;2057908;28;19914;-68
2022/04/13 05:42:25;;;;;;;;;;;12.00;99.90;;;;;;2060156;28;19918;-68
2022/04/13 05:43:25;;;;;;;;;;;12.00;99.90;;;;;;2057648;28;19918;-68
2022/04/13 05:44:26;;;;;;;;;;;12.10;99.90;;;;;;2060756;28;19918;-68
2022/04/13 05:45:26;;;;;;;;;;;12.10;99.90;;;;;;2057120;28;20704;-68
2022/04/13 05:46:26;;;;;;;;;;;12.10;99.90;;;;;;2062091;28;19918;-68
2022/04/13 05:47:27;;;;;;;;;;;12.20;99.90;;;;;;2059676;28;19917;-67
2022/04/13 05:48:27;;;;;;;;;;;12.20;99.90;;;;;;2059160;28;19914;-68
2022/04/13 05:49:28;;;;;;;;;;;12.30;99.90;;;;;;2061304;28;20000;-68
2022/04/13 05:50:28;;;;;;;;;;;12.30;99.90;;;;;;2063377;28;19913;-68
2022/04/13 05:51:29;;;;;;;;;;;12.30;99.90;;;;;;2061171;28;19997;-68
2022/04/13 05:52:29;;;;;;;;;;;12.40;99.90;;;;;;2057047;28;20416;-68
2022/04/13 05:53:29;;;;;;;;;;;12.40;99.90;;;;;;2060164;28;20523;-68